createdAt,value
2019-01-15T00:02:20.589Z,94.60
2019-01-15T00:04:46.961Z,95.00
2019-01-15T00:07:13.241Z,94.80
2019-01-15T00:09:39.519Z,95.00
2019-01-15T00:12:07.911Z,95.20
2019-01-15T00:14:33.984Z,95.30
2019-01-15T00:17:00.248Z,94.90
2019-01-15T00:19:26.647Z,94.90
2019-01-15T00:21:52.974Z,94.60
2019-01-15T00:24:19.195Z,94.80
2019-01-15T00:26:45.608Z,94.70
2019-01-15T00:29:11.983Z,95.00
2019-01-15T00:31:38.435Z,94.90
2019-01-15T00:34:04.829Z,94.40
2019-01-15T00:36:31.090Z,94.20
2019-01-15T00:38:57.459Z,94.10
2019-01-15T00:41:23.725Z,94.10
2019-01-15T00:43:49.979Z,93.70
2019-01-15T00:46:16.304Z,93.50
2019-01-15T00:48:42.547Z,93.10
2019-01-15T00:51:09.023Z,92.80
2019-01-15T00:53:35.325Z,92.90
2019-01-15T00:56:01.704Z,92.60
2019-01-15T00:58:27.987Z,92.60
2019-01-15T01:00:54.370Z,92.40
2019-01-15T01:03:20.726Z,92.60
2019-01-15T01:05:47.109Z,92.70
2019-01-15T01:08:13.571Z,92.70
2019-01-15T01:10:40.080Z,92.60
2019-01-15T01:13:06.451Z,92.80
2019-01-15T01:15:32.916Z,92.40
2019-01-15T01:17:59.308Z,92.50
2019-01-15T01:20:25.593Z,92.40
2019-01-15T01:22:52.065Z,92.70
2019-01-15T01:25:18.434Z,92.50
2019-01-15T01:27:44.832Z,92.80
2019-01-15T01:30:17.596Z,93.10
2019-01-15T01:32:43.844Z,94.30
2019-01-15T01:35:10.207Z,95.50
2019-01-15T01:37:36.595Z,96.10
2019-01-15T01:40:06.720Z,95.90
2019-01-15T01:42:33.076Z,96.10
2019-01-15T01:44:59.469Z,96.30
2019-01-15T01:47:25.838Z,96.20
2019-01-15T01:49:52.226Z,96.50
2019-01-15T01:52:18.599Z,96.40
2019-01-15T01:54:44.960Z,96.80
2019-01-15T01:57:11.350Z,97.00
2019-01-15T01:59:37.625Z,96.70
2019-01-15T02:02:04.309Z,96.70
2019-01-15T02:04:30.693Z,96.50
2019-01-15T02:06:57.163Z,96.60
2019-01-15T02:09:23.458Z,96.80
2019-01-15T02:11:49.800Z,96.60
2019-01-15T02:14:16.089Z,96.40
2019-01-15T02:16:42.534Z,96.30
2019-01-15T02:19:08.902Z,96.20
2019-01-15T02:21:35.222Z,96.00
2019-01-15T02:24:02.081Z,95.40
2019-01-15T02:26:28.354Z,95.60
2019-01-15T02:28:54.637Z,95.30
2019-01-15T02:31:21.055Z,94.70
2019-01-15T02:33:47.319Z,94.50
2019-01-15T02:36:13.641Z,94.80
2019-01-15T02:38:39.916Z,95.00
2019-01-15T02:41:06.259Z,94.40
2019-01-15T02:43:32.565Z,94.20
2019-01-15T02:45:58.911Z,94.00
2019-01-15T02:48:25.315Z,93.90
2019-01-15T02:50:51.585Z,93.80
2019-01-15T02:53:17.945Z,93.90
2019-01-15T02:55:44.339Z,93.60
2019-01-15T02:58:10.736Z,93.60
2019-01-15T03:00:37.109Z,93.70
2019-01-15T03:03:03.582Z,93.20
2019-01-15T03:05:29.952Z,93.00
2019-01-15T03:07:56.455Z,93.00
2019-01-15T03:10:22.930Z,93.30
2019-01-15T03:12:55.747Z,93.40
2019-01-15T03:15:19.500Z,93.20
2019-01-15T03:17:46.004Z,92.60
2019-01-15T03:20:14.569Z,93.00
2019-01-15T03:22:40.922Z,93.00
2019-01-15T03:25:08.703Z,93.10
2019-01-15T03:27:35.001Z,92.70
2019-01-15T03:30:01.682Z,93.20
2019-01-15T03:32:27.960Z,92.90
2019-01-15T03:34:54.237Z,92.90
2019-01-15T03:37:20.521Z,93.00
2019-01-15T03:39:46.807Z,93.00
2019-01-15T03:42:13.055Z,93.10
2019-01-15T03:44:39.320Z,92.40
2019-01-15T03:47:05.613Z,92.60
2019-01-15T03:49:31.886Z,92.50
2019-01-15T03:51:58.291Z,92.90
2019-01-15T03:54:24.632Z,92.80
2019-01-15T03:56:51.091Z,92.90
2019-01-15T03:59:17.479Z,92.80
2019-01-15T04:01:43.859Z,93.10
2019-01-15T04:04:10.137Z,93.10
2019-01-15T04:06:36.425Z,93.00
2019-01-15T04:09:05.241Z,92.90
2019-01-15T04:11:31.627Z,92.70
2019-01-15T04:13:57.918Z,92.70
2019-01-15T04:16:24.300Z,92.30
2019-01-15T04:18:50.751Z,92.60
2019-01-15T04:21:17.034Z,92.50
2019-01-15T04:23:43.296Z,92.60
2019-01-15T04:26:09.562Z,92.40
2019-01-15T04:28:35.819Z,92.10
2019-01-15T04:31:02.312Z,92.00
2019-01-15T04:33:28.604Z,92.00
2019-01-15T04:35:55.107Z,92.10
2019-01-15T04:38:21.550Z,92.10
2019-01-15T04:40:47.949Z,91.80
2019-01-15T04:43:19.706Z,91.70
2019-01-15T04:45:42.378Z,91.40
2019-01-15T04:48:08.644Z,91.40
2019-01-15T04:50:34.909Z,91.30
2019-01-15T04:53:01.253Z,91.20
2019-01-15T04:55:27.740Z,91.50
2019-01-15T04:57:53.996Z,91.40
2019-01-15T05:00:21.288Z,91.40
2019-01-15T05:02:48.053Z,91.40
2019-01-15T05:05:14.742Z,91.60
2019-01-15T05:07:41.218Z,91.80
2019-01-15T05:10:12.991Z,91.70
2019-01-15T05:12:39.371Z,91.40
2019-01-15T05:15:08.755Z,91.50
2019-01-15T05:17:35.033Z,91.70
2019-01-15T05:20:01.529Z,91.80
2019-01-15T05:22:27.788Z,91.80
2019-01-15T05:24:54.149Z,91.60
2019-01-15T05:27:20.548Z,91.10
2019-01-15T05:29:46.829Z,91.30
2019-01-15T05:32:13.245Z,91.90
2019-01-15T05:34:39.495Z,92.00
2019-01-15T05:37:05.757Z,92.10
2019-01-15T05:39:32.011Z,91.70
2019-01-15T05:41:58.397Z,91.80
2019-01-15T05:44:24.681Z,91.60
2019-01-15T05:46:50.984Z,91.50
2019-01-15T05:49:17.242Z,91.40
2019-01-15T05:51:43.508Z,91.70
2019-01-15T05:54:09.997Z,91.50
2019-01-15T05:56:36.249Z,91.40
2019-01-15T05:59:02.631Z,91.40
2019-01-15T06:01:29.105Z,91.30
2019-01-15T06:03:55.503Z,91.40
2019-01-15T06:06:21.747Z,91.60
2019-01-15T06:08:48.005Z,91.30
2019-01-15T06:11:14.296Z,91.30
2019-01-15T06:13:42.800Z,91.40
2019-01-15T06:16:08.863Z,91.20
2019-01-15T06:18:35.211Z,91.20
2019-01-15T06:21:01.521Z,91.50
2019-01-15T06:23:27.781Z,91.60
2019-01-15T06:25:54.228Z,91.50
2019-01-15T06:28:20.633Z,91.60
2019-01-15T06:30:46.991Z,90.80
2019-01-15T06:33:13.276Z,91.50
2019-01-15T06:35:39.645Z,91.20
2019-01-15T06:38:06.004Z,91.60
2019-01-15T06:40:32.490Z,91.60
2019-01-15T06:42:58.954Z,91.60
2019-01-15T06:45:30.643Z,91.60
2019-01-15T06:47:57.210Z,91.80
2019-01-15T06:50:23.579Z,91.40
2019-01-15T06:52:49.859Z,92.30
2019-01-15T06:55:21.919Z,92.20
2019-01-15T06:57:48.367Z,92.00
2019-01-15T07:00:16.946Z,92.20
2019-01-15T07:02:43.213Z,91.80
2019-01-15T07:05:09.694Z,92.10
2019-01-15T07:07:36.158Z,91.90
2019-01-15T07:10:06.049Z,92.20
2019-01-15T07:12:32.412Z,92.50
2019-01-15T07:14:58.705Z,92.50
2019-01-15T07:17:25.069Z,92.80
2019-01-15T07:19:51.332Z,92.80
2019-01-15T07:22:17.840Z,92.60
2019-01-15T07:24:44.084Z,92.70
2019-01-15T07:27:10.349Z,92.70
2019-01-15T07:29:36.619Z,92.50
2019-01-15T07:32:02.998Z,92.50
2019-01-15T07:34:29.297Z,92.80
2019-01-15T07:36:55.637Z,92.80
2019-01-15T07:39:21.926Z,92.90
2019-01-15T07:41:48.198Z,92.70
2019-01-15T07:44:14.475Z,92.90
2019-01-15T07:46:40.848Z,93.00
2019-01-15T07:49:07.203Z,92.90
2019-01-15T07:51:33.508Z,92.90
2019-01-15T07:53:59.770Z,92.80
2019-01-15T07:56:26.035Z,92.80
2019-01-15T07:58:52.311Z,93.00
2019-01-15T08:01:20.492Z,92.90
2019-01-15T08:03:46.763Z,93.00
2019-01-15T08:06:13.034Z,93.20
2019-01-15T08:08:39.399Z,93.10
2019-01-15T08:11:05.863Z,93.10
2019-01-15T08:13:32.239Z,93.40
2019-01-15T08:15:58.527Z,93.50
2019-01-15T08:18:24.773Z,93.30
2019-01-15T08:20:51.169Z,93.00
2019-01-15T08:23:17.433Z,92.70
2019-01-15T08:25:43.792Z,92.90
2019-01-15T08:28:10.078Z,92.90
2019-01-15T08:30:36.439Z,93.10
2019-01-15T08:33:02.936Z,93.20
2019-01-15T08:35:29.519Z,93.10
2019-01-15T08:37:55.884Z,92.70
2019-01-15T08:40:22.589Z,92.90
2019-01-15T08:42:48.945Z,92.80
2019-01-15T08:45:16.700Z,92.90
2019-01-15T08:47:45.092Z,92.40
2019-01-15T08:50:26.133Z,92.60
2019-01-15T08:52:52.588Z,92.70
2019-01-15T08:55:18.944Z,91.90
2019-01-15T08:57:45.534Z,92.40
2019-01-15T09:00:13.501Z,92.50
2019-01-15T09:02:39.784Z,92.20
2019-01-15T09:05:06.265Z,92.30
2019-01-15T09:07:32.715Z,92.20
2019-01-15T09:09:59.196Z,92.00
2019-01-15T09:12:25.545Z,91.90
2019-01-15T09:14:51.832Z,92.00
2019-01-15T09:17:18.092Z,91.70
2019-01-15T09:19:44.552Z,91.90
2019-01-15T09:22:10.927Z,91.80
2019-01-15T09:24:37.297Z,91.70
2019-01-15T09:27:04.168Z,91.70
2019-01-15T09:29:30.543Z,91.50
2019-01-15T09:31:56.916Z,91.60
2019-01-15T09:34:23.195Z,91.60
2019-01-15T09:36:49.582Z,91.80
2019-01-15T09:39:15.840Z,91.50
2019-01-15T09:41:43.031Z,91.80
2019-01-15T09:44:09.289Z,91.80
2019-01-15T09:46:35.641Z,91.90
2019-01-15T09:49:02.014Z,92.00
2019-01-15T09:51:28.262Z,91.40
2019-01-15T09:53:54.655Z,91.40
2019-01-15T09:56:21.053Z,91.50
2019-01-15T09:58:47.401Z,91.50
2019-01-15T10:01:13.796Z,91.70
2019-01-15T10:03:40.068Z,92.00
2019-01-15T10:06:06.408Z,91.90
2019-01-15T10:08:32.754Z,92.00
2019-01-15T10:10:59.134Z,91.90
2019-01-15T10:13:25.369Z,91.90
2019-01-15T10:15:51.620Z,91.60
2019-01-15T10:18:18.000Z,91.40
2019-01-15T10:20:44.344Z,91.40
2019-01-15T10:23:10.778Z,91.40
2019-01-15T10:25:37.661Z,91.20
2019-01-15T10:28:04.210Z,90.90
2019-01-15T10:30:59.954Z,91.10
2019-01-15T10:33:36.014Z,90.70
2019-01-15T10:36:02.431Z,91.20
2019-01-15T10:38:29.477Z,90.90
2019-01-15T10:40:56.927Z,91.20
2019-01-15T10:43:24.018Z,91.00
2019-01-15T10:45:50.257Z,90.70
2019-01-15T10:48:16.500Z,90.80
2019-01-15T10:50:42.777Z,90.80
2019-01-15T10:53:09.026Z,90.50
2019-01-15T10:55:35.270Z,90.90
2019-01-15T10:58:01.658Z,90.60
2019-01-15T11:00:27.919Z,90.20
2019-01-15T11:02:54.266Z,90.50
2019-01-15T11:05:20.546Z,90.70
2019-01-15T11:07:46.797Z,90.40
2019-01-15T11:10:14.746Z,90.80
2019-01-15T11:12:41.119Z,90.90
2019-01-15T11:15:08.371Z,91.00
2019-01-15T11:17:34.837Z,91.40
2019-01-15T11:20:01.309Z,91.40
2019-01-15T11:22:27.554Z,91.30
2019-01-15T11:24:53.927Z,91.30
2019-01-15T11:27:20.198Z,91.40
2019-01-15T11:29:46.457Z,91.60
2019-01-15T11:32:12.727Z,91.50
2019-01-15T11:34:39.073Z,91.80
2019-01-15T11:37:05.473Z,92.30
2019-01-15T11:39:31.722Z,91.80
2019-01-15T11:41:58.225Z,91.90
2019-01-15T11:44:24.565Z,91.80
2019-01-15T11:46:50.811Z,91.50
2019-01-15T11:49:17.082Z,91.40
2019-01-15T11:51:43.428Z,91.70
2019-01-15T11:54:09.671Z,91.60
2019-01-15T11:56:35.974Z,91.80
2019-01-15T11:59:02.467Z,91.50
2019-01-15T12:01:30.693Z,91.40
2019-01-15T12:04:15.860Z,91.50
2019-01-15T12:06:44.290Z,91.70
2019-01-15T12:09:12.772Z,91.80
2019-01-15T12:11:41.038Z,92.20
2019-01-15T12:14:27.438Z,92.10
2019-01-15T12:16:58.413Z,91.90
2019-01-15T12:19:32.328Z,91.60
2019-01-15T12:22:06.138Z,91.50
2019-01-15T12:24:37.532Z,91.50
2019-01-15T12:27:08.441Z,91.50
2019-01-15T12:29:53.133Z,91.60
2019-01-15T12:32:37.853Z,91.40
2019-01-15T12:35:10.784Z,91.50
2019-01-15T12:37:41.796Z,91.60
2019-01-15T12:40:29.763Z,91.70
2019-01-15T12:43:09.749Z,91.50
2019-01-15T12:45:43.840Z,91.50
2019-01-15T12:48:28.916Z,91.20
2019-01-15T12:50:57.085Z,91.30
2019-01-15T12:53:31.133Z,91.40
2019-01-15T12:56:02.073Z,91.50
2019-01-15T12:58:45.449Z,91.30
2019-01-15T13:01:30.368Z,91.50
2019-01-15T13:04:04.645Z,91.60
2019-01-15T13:06:44.728Z,91.50
2019-01-15T13:09:12.916Z,91.20
2019-01-15T13:11:50.385Z,91.10
2019-01-15T13:14:30.645Z,91.10
2019-01-15T13:17:13.759Z,91.00
2019-01-15T13:19:58.491Z,91.20
2019-01-15T13:22:32.432Z,91.30
2019-01-15T13:25:03.533Z,90.80
2019-01-15T13:27:40.915Z,91.00
2019-01-15T13:30:12.224Z,91.40
2019-01-15T13:32:43.442Z,91.30
2019-01-15T13:35:17.691Z,90.90
2019-01-15T13:37:49.062Z,90.90
2019-01-15T13:40:23.128Z,90.70
2019-01-15T13:42:54.030Z,89.90
2019-01-15T13:45:42.003Z,89.60
2019-01-15T13:48:09.528Z,89.40
2019-01-15T13:50:43.716Z,90.00
2019-01-15T13:53:11.932Z,90.00
2019-01-15T13:55:40.257Z,90.10
2019-01-15T13:58:11.397Z,90.20
2019-01-15T14:00:48.872Z,89.30
2019-01-15T14:03:24.742Z,89.50
2019-01-15T14:05:53.701Z,89.80
2019-01-15T14:08:30.765Z,89.20
2019-01-15T14:11:04.708Z,88.50
2019-01-15T14:13:41.705Z,89.10
2019-01-15T14:16:10.021Z,89.80
2019-01-15T14:18:55.313Z,89.70
2019-01-15T14:21:26.734Z,88.90
2019-01-15T14:23:55.077Z,89.50
2019-01-15T14:26:25.963Z,89.40
2019-01-15T14:29:06.196Z,89.20
2019-01-15T14:31:49.437Z,89.50
2019-01-15T14:34:17.641Z,89.60
2019-01-15T14:36:51.858Z,89.30
2019-01-15T14:39:22.780Z,89.50
2019-01-15T14:41:50.951Z,89.30
2019-01-15T14:44:28.153Z,89.10
2019-01-15T14:47:13.129Z,89.50
2019-01-15T14:49:41.425Z,90.00
2019-01-15T14:52:15.406Z,90.20
2019-01-15T14:54:49.604Z,89.80
2019-01-15T14:57:20.752Z,89.30
2019-01-15T14:59:55.099Z,89.50
2019-01-15T15:02:23.472Z,90.00
2019-01-15T15:04:51.654Z,90.10
2019-01-15T15:07:26.143Z,89.80
2019-01-15T15:09:54.411Z,89.70
2019-01-15T15:12:22.677Z,90.00
2019-01-15T15:14:53.625Z,89.80
2019-01-15T15:17:24.541Z,89.80
2019-01-15T15:19:52.704Z,89.90
2019-01-15T15:22:26.635Z,89.50
2019-01-15T15:24:57.513Z,89.90
2019-01-15T15:27:25.695Z,90.00
2019-01-15T15:30:10.214Z,90.20
2019-01-15T15:32:41.140Z,90.30
2019-01-15T15:35:25.608Z,90.00
2019-01-15T15:37:56.813Z,89.60
2019-01-15T15:40:34.240Z,89.70
2019-01-15T15:43:02.520Z,90.00
2019-01-15T15:45:33.679Z,90.10
2019-01-15T15:48:04.593Z,90.40
2019-01-15T15:50:51.296Z,90.50
2019-01-15T15:53:19.689Z,90.40
2019-01-15T15:56:03.232Z,90.70
2019-01-15T15:58:31.402Z,90.70
2019-01-15T16:01:05.580Z,91.00
2019-01-15T16:03:34.563Z,91.20
2019-01-15T16:06:19.325Z,90.90
2019-01-15T16:08:50.432Z,91.10
2019-01-15T16:11:24.629Z,91.20
2019-01-15T16:13:55.796Z,91.30
2019-01-15T16:16:23.973Z,91.40
2019-01-15T16:19:08.829Z,91.30
2019-01-15T16:21:54.863Z,91.20
2019-01-15T16:24:41.452Z,91.20
2019-01-15T16:27:09.819Z,91.50
2019-01-15T16:29:40.917Z,91.70
2019-01-15T16:32:09.168Z,91.50
2019-01-15T16:34:52.607Z,91.60
2019-01-15T16:37:20.792Z,91.60
2019-01-15T16:40:05.829Z,91.90
2019-01-15T16:42:34.135Z,91.80
2019-01-15T16:45:02.401Z,91.70
2019-01-15T16:47:36.729Z,92.00
2019-01-15T16:50:22.255Z,92.10
2019-01-15T16:53:05.756Z,91.80
2019-01-15T16:55:39.990Z,92.00
2019-01-15T16:58:20.378Z,92.00
2019-01-15T17:01:05.181Z,92.40
2019-01-15T17:03:36.084Z,92.40
2019-01-15T17:06:21.078Z,92.50
2019-01-15T17:08:55.050Z,92.70
2019-01-15T17:11:23.263Z,92.60
2019-01-15T17:13:51.536Z,92.50
2019-01-15T17:16:22.687Z,92.40
2019-01-15T17:19:09.454Z,92.40
2019-01-15T17:21:40.657Z,92.30
2019-01-15T17:24:23.857Z,92.30
2019-01-15T17:27:09.017Z,92.10
2019-01-15T17:29:37.544Z,92.20
2019-01-15T17:32:22.818Z,92.30
2019-01-15T17:34:51.011Z,92.70
2019-01-15T17:37:22.424Z,92.50
2019-01-15T17:39:56.346Z,92.50
2019-01-15T17:42:24.794Z,92.50
2019-01-15T17:45:02.594Z,92.40
2019-01-15T17:47:39.975Z,92.00
2019-01-15T17:50:20.834Z,92.00
2019-01-15T17:52:49.235Z,92.20
2019-01-15T17:55:26.733Z,92.00
2019-01-15T17:58:13.267Z,92.60
2019-01-15T18:00:58.276Z,92.60
2019-01-15T18:03:26.781Z,92.40
2019-01-15T18:06:11.438Z,92.60
2019-01-15T18:08:42.594Z,92.60
2019-01-15T18:11:25.973Z,92.70
2019-01-15T18:13:56.896Z,92.50
2019-01-15T18:16:25.193Z,92.40
2019-01-15T18:18:56.097Z,92.70
2019-01-15T18:21:27.023Z,92.80
2019-01-15T18:24:04.264Z,92.70
2019-01-15T18:26:44.495Z,92.40
2019-01-15T18:29:24.769Z,92.60
2019-01-15T18:32:08.208Z,92.60
2019-01-15T18:34:42.592Z,92.30
2019-01-15T18:37:17.054Z,92.80
2019-01-15T18:39:57.225Z,92.70
2019-01-15T18:42:40.567Z,92.40
2019-01-15T18:45:09.825Z,92.20
2019-01-15T18:47:50.254Z,91.90
2019-01-15T18:50:35.351Z,92.10
2019-01-15T18:53:04.208Z,92.20
2019-01-15T18:55:49.357Z,92.20
2019-01-15T18:58:20.824Z,91.90
2019-01-15T19:00:49.225Z,92.10
2019-01-15T19:03:35.760Z,92.20
2019-01-15T19:06:13.277Z,92.30
2019-01-15T19:08:50.557Z,92.40
2019-01-15T19:11:21.757Z,92.20
2019-01-15T19:14:08.149Z,92.20
2019-01-15T19:16:42.384Z,92.00
2019-01-15T19:19:16.677Z,92.00
2019-01-15T19:21:45.348Z,91.80
2019-01-15T19:24:14.015Z,92.00
2019-01-15T19:26:57.529Z,92.30
2019-01-15T19:29:25.879Z,91.70
2019-01-15T19:32:03.340Z,92.00
2019-01-15T19:34:34.513Z,92.10
2019-01-15T19:37:05.949Z,91.70
2019-01-15T19:39:37.161Z,91.70
2019-01-15T19:42:11.298Z,91.50
2019-01-15T19:44:45.711Z,91.80
2019-01-15T19:47:30.486Z,91.80
2019-01-15T19:50:07.423Z,92.30
2019-01-15T19:52:35.728Z,91.90
2019-01-15T19:55:14.938Z,92.10
2019-01-15T19:57:43.129Z,92.20
2019-01-15T20:00:15.134Z,92.00
2019-01-15T20:02:49.314Z,91.50
2019-01-15T20:05:34.122Z,91.70
2019-01-15T20:08:17.309Z,91.50
2019-01-15T20:10:51.449Z,91.70
2019-01-15T20:13:28.777Z,91.90
2019-01-15T20:15:57.076Z,91.70
2019-01-15T20:18:25.410Z,91.60
2019-01-15T20:20:56.668Z,92.00
2019-01-15T20:23:41.821Z,92.00
2019-01-15T20:26:16.077Z,92.00
2019-01-15T20:28:44.261Z,92.00
2019-01-15T20:31:24.526Z,92.10
2019-01-15T20:34:01.718Z,91.80
2019-01-15T20:36:30.055Z,92.20
2019-01-15T20:39:01.012Z,92.30
2019-01-15T20:41:29.318Z,92.10
2019-01-15T20:44:14.157Z,92.10
2019-01-15T20:46:58.922Z,92.50
2019-01-15T20:49:33.000Z,92.20
2019-01-15T20:52:18.001Z,92.30
2019-01-15T20:54:48.956Z,92.20
2019-01-15T20:57:20.230Z,92.10
2019-01-15T20:59:54.185Z,92.20
2019-01-15T21:02:22.645Z,91.80
2019-01-15T21:05:00.260Z,91.90
2019-01-15T21:07:37.456Z,91.60
2019-01-15T21:10:31.734Z,91.70
2019-01-15T21:12:55.868Z,91.70
2019-01-15T21:15:29.871Z,91.90
2019-01-15T21:18:13.097Z,91.60
2019-01-15T21:20:41.354Z,91.50
2019-01-15T21:23:09.569Z,91.50
2019-01-15T21:25:49.874Z,91.60
2019-01-15T21:28:18.083Z,91.40
2019-01-15T21:30:52.312Z,91.40
2019-01-15T21:33:20.592Z,91.50
2019-01-15T21:35:51.520Z,91.70
2019-01-15T21:38:28.594Z,91.80
2019-01-15T21:40:59.780Z,91.60
2019-01-15T21:43:27.981Z,91.60
2019-01-15T21:46:05.389Z,91.60
2019-01-15T21:48:48.905Z,91.40
2019-01-15T21:51:23.160Z,91.40
2019-01-15T21:53:56.940Z,91.60
2019-01-15T21:56:40.172Z,91.70
2019-01-15T21:59:08.449Z,91.70
2019-01-15T22:01:36.659Z,91.50
2019-01-15T22:04:05.121Z,91.20
2019-01-15T22:06:36.381Z,91.20
2019-01-15T22:09:16.583Z,91.50
2019-01-15T22:11:44.790Z,91.50
2019-01-15T22:14:13.092Z,91.50
2019-01-15T22:16:53.544Z,91.10
2019-01-15T22:19:31.080Z,91.30
2019-01-15T22:22:15.827Z,91.10
2019-01-15T22:24:49.855Z,91.60
2019-01-15T22:27:30.354Z,91.50
2019-01-15T22:29:58.627Z,91.70
2019-01-15T22:32:26.829Z,91.30
2019-01-15T22:35:11.499Z,91.10
2019-01-15T22:37:39.944Z,91.30
2019-01-15T22:40:15.840Z,91.40
2019-01-15T22:42:50.239Z,91.40
2019-01-15T22:45:18.670Z,91.20
2019-01-15T22:47:55.063Z,91.20
2019-01-15T22:50:22.983Z,91.30
2019-01-15T22:52:53.913Z,91.50
2019-01-15T22:55:28.146Z,91.40
2019-01-15T22:58:02.384Z,91.40
2019-01-15T23:00:53.282Z,91.50
2019-01-15T23:03:24.465Z,91.20
2019-01-15T23:05:55.405Z,91.70
2019-01-15T23:08:23.813Z,91.60
2019-01-15T23:10:54.973Z,91.30
2019-01-15T23:13:23.249Z,91.30
2019-01-15T23:15:57.732Z,91.60
2019-01-15T23:18:25.915Z,91.60
2019-01-15T23:21:00.211Z,91.30
2019-01-15T23:23:37.191Z,91.30
2019-01-15T23:26:22.301Z,91.40
2019-01-15T23:28:56.477Z,91.30
2019-01-15T23:31:30.832Z,91.10
2019-01-15T23:34:11.250Z,91.10
2019-01-15T23:36:42.268Z,90.90
2019-01-15T23:39:13.804Z,91.10
2019-01-15T23:41:42.008Z,91.10
2019-01-15T23:44:10.219Z,91.10
2019-01-15T23:46:50.520Z,91.20
2019-01-15T23:49:21.709Z,91.30
2019-01-15T23:51:49.979Z,91.30
2019-01-15T23:54:36.341Z,91.50
2019-01-15T23:57:21.076Z,91.70
2019-01-15T23:59:52.003Z,91.60
